Time;durP1;ratioP1;P1;durP2;ratioP2;P2;SDS_P1;SDS_P2;PMS_P1;PMS_P2;Temp;Humidity;BMP_temperature;BMP_pressure;BME280_temperature;BME280_humidity;BME280_pressure;Samples;Min_cycle;Max_cycle;Signal;HPM_P1;HPM_P2
2023/04/13 00:00:42;;;;;;;18.62;9.85;;;;;;;;;;755819;185;919584;-60
2023/04/13 00:03:11;;;;;;;14.80;10.53;;;;;;;;;;748594;185;919234;-60
2023/04/13 00:05:34;;;;;;;15.87;10.47;;;;;;;;;;751309;184;935888;-60
2023/04/13 00:08:01;;;;;;;18.17;10.40;;;;;;;;;;760279;182;915045;-60
2023/04/13 00:10:26;;;;;;;18.10;11.90;;;;;;;;;;764176;182;918717;-60
2023/04/13 00:12:51;;;;;;;15.50;10.70;;;;;;;;;;762994;182;915841;-60
2023/04/13 00:15:18;;;;;;;14.87;10.00;;;;;;;;;;767168;182;917995;-60
2023/04/13 00:17:44;;;;;;;17.43;10.77;;;;;;;;;;761775;182;918833;-60
2023/04/13 00:20:14;;;;;;;20.27;11.03;;;;;;;;;;758909;182;920391;-60
2023/04/13 00:22:37;;;;;;;14.30;9.80;;;;;;;;;;752894;183;920867;-60
2023/04/13 00:25:03;;;;;;;16.30;11.50;;;;;;;;;;745248;186;818185;-60
2023/04/13 00:27:29;;;;;;;17.23;10.53;;;;;;;;;;752543;182;820740;-60
2023/04/13 00:29:55;;;;;;;13.80;10.17;;;;;;;;;;761928;182;919031;-60
2023/04/13 00:32:20;;;;;;;15.73;9.90;;;;;;;;;;767013;182;919114;-60
2023/04/13 00:34:46;;;;;;;13.07;9.20;;;;;;;;;;748645;185;918917;-60
2023/04/13 00:37:13;;;;;;;16.70;11.57;;;;;;;;;;748692;185;920283;-59
2023/04/13 00:39:38;;;;;;;16.10;10.80;;;;;;;;;;755477;184;843994;-59
2023/04/13 00:42:04;;;;;;;15.83;10.20;;;;;;;;;;758008;183;918254;-59
2023/04/13 00:44:30;;;;;;;16.73;10.60;;;;;;;;;;749679;186;919539;-60
2023/04/13 00:46:55;;;;;;;16.20;10.23;;;;;;;;;;749721;187;918810;-60
2023/04/13 00:49:21;;;;;;;16.60;11.00;;;;;;;;;;756838;187;715483;-60
2023/04/13 00:51:47;;;;;;;14.00;9.17;;;;;;;;;;768697;182;843163;-60
2023/04/13 00:54:13;;;;;;;14.13;9.75;;;;;;;;;;763667;182;919185;-60
2023/04/13 00:56:41;;;;;;;17.50;11.43;;;;;;;;;;768145;183;918782;-60
2023/04/13 00:59:06;;;;;;;15.70;10.00;;;;;;;;;;755842;183;918050;-60
2023/04/13 01:01:31;;;;;;;13.80;10.37;;;;;;;;;;751330;184;919577;-60
2023/04/13 01:03:58;;;;;;;18.17;11.33;;;;;;;;;;756521;184;914858;-60
2023/04/13 01:06:25;;;;;;;14.80;10.37;;;;;;;;;;756083;182;917001;-59
2023/04/13 01:08:52;;;;;;;15.63;9.17;;;;;;;;;;754751;183;849763;-60
2023/04/13 01:11:19;;;;;;;11.70;8.27;;;;;;;;;;751718;184;858407;-60
2023/04/13 01:13:46;;;;;;;15.27;9.07;;;;;;;;;;749373;186;915896;-60
2023/04/13 01:16:13;;;;;;;16.67;9.83;;;;;;;;;;760862;182;918158;-60
2023/04/13 01:18:39;;;;;;;11.73;8.10;;;;;;;;;;762878;183;919477;-60
2023/04/13 01:21:06;;;;;;;12.77;8.45;;;;;;;;;;765097;184;924179;-61
2023/04/13 01:23:32;;;;;;;11.83;8.17;;;;;;;;;;768617;182;918214;-60
2023/04/13 01:25:59;;;;;;;13.37;8.23;;;;;;;;;;766501;182;919090;-59
2023/04/13 01:28:25;;;;;;;14.07;9.43;;;;;;;;;;765957;182;919386;-60
2023/04/13 01:30:51;;;;;;;13.20;8.30;;;;;;;;;;771640;182;915196;-60
2023/04/13 01:33:16;;;;;;;13.80;8.33;;;;;;;;;;766256;181;919379;-60
2023/04/13 01:35:43;;;;;;;13.60;8.43;;;;;;;;;;766727;181;920913;-60
2023/04/13 01:38:08;;;;;;;23.60;8.63;;;;;;;;;;772509;182;919324;-60
2023/04/13 01:40:35;;;;;;;14.30;9.40;;;;;;;;;;769067;181;1123662;-60
2023/04/13 01:43:00;;;;;;;11.10;9.00;;;;;;;;;;767924;182;878985;-60
2023/04/13 01:45:26;;;;;;;11.67;8.70;;;;;;;;;;765723;182;821230;-60
2023/04/13 01:48:03;;;;;;;14.43;9.33;;;;;;;;;;766811;182;919480;-60
2023/04/13 01:50:28;;;;;;;13.93;9.83;;;;;;;;;;765554;182;920059;-60
2023/04/13 01:52:56;;;;;;;12.95;9.43;;;;;;;;;;765038;182;818258;-59
2023/04/13 01:55:20;;;;;;;12.85;9.75;;;;;;;;;;768752;181;869138;-60
2023/04/13 01:57:47;;;;;;;13.17;9.53;;;;;;;;;;767911;181;911761;-59
2023/04/13 02:00:13;;;;;;;15.73;9.03;;;;;;;;;;766422;181;941226;-60
2023/04/13 02:02:38;;;;;;;10.43;8.07;;;;;;;;;;766892;181;818386;-60
2023/04/13 02:05:06;;;;;;;14.70;10.10;;;;;;;;;;771955;182;917954;-59
2023/04/13 02:07:31;;;;;;;14.90;8.37;;;;;;;;;;767870;180;916785;-60
2023/04/13 02:09:56;;;;;;;11.67;8.17;;;;;;;;;;767502;183;877836;-59
2023/04/13 02:12:22;;;;;;;11.97;8.97;;;;;;;;;;756096;184;915454;-60
2023/04/13 02:14:48;;;;;;;13.07;8.98;;;;;;;;;;756216;182;921134;-60
2023/04/13 02:17:14;;;;;;;14.10;8.93;;;;;;;;;;763310;184;919232;-60
2023/04/13 02:19:40;;;;;;;14.30;9.75;;;;;;;;;;765689;181;948640;-60
2023/04/13 02:22:06;;;;;;;13.03;7.93;;;;;;;;;;766500;183;918183;-60
2023/04/13 02:24:32;;;;;;;10.63;8.10;;;;;;;;;;758375;183;920711;-60
2023/04/13 02:26:58;;;;;;;14.07;7.47;;;;;;;;;;753270;184;920387;-60
2023/04/13 02:29:23;;;;;;;10.80;8.50;;;;;;;;;;755820;184;914917;-63
2023/04/13 02:31:49;;;;;;;10.43;7.33;;;;;;;;;;752292;183;823501;-61
2023/04/13 02:34:15;;;;;;;12.67;9.00;;;;;;;;;;761857;182;923253;-60
2023/04/13 02:36:41;;;;;;;9.73;8.60;;;;;;;;;;770272;182;862249;-60
2023/04/13 02:39:07;;;;;;;9.60;7.70;;;;;;;;;;759708;182;919059;-61
2023/04/13 02:41:33;;;;;;;11.50;7.90;;;;;;;;;;764878;182;813882;-60
2023/04/13 02:43:59;;;;;;;11.17;7.77;;;;;;;;;;770140;182;919248;-60
2023/04/13 02:46:24;;;;;;;12.13;7.97;;;;;;;;;;767333;182;849718;-59
2023/04/13 02:48:50;;;;;;;11.90;8.50;;;;;;;;;;768139;181;815100;-60
2023/04/13 02:51:16;;;;;;;12.07;8.63;;;;;;;;;;770906;182;632007;-60
2023/04/13 02:53:42;;;;;;;10.60;7.80;;;;;;;;;;775357;181;627117;-60
2023/04/13 02:56:08;;;;;;;12.67;8.10;;;;;;;;;;764127;180;917870;-60
2023/04/13 02:58:34;;;;;;;12.27;8.93;;;;;;;;;;768135;181;941250;-60
2023/04/13 03:01:00;;;;;;;9.87;7.60;;;;;;;;;;770782;181;854923;-60
2023/04/13 03:03:26;;;;;;;11.30;7.40;;;;;;;;;;767739;182;896813;-59
2023/04/13 03:05:51;;;;;;;14.13;7.63;;;;;;;;;;765209;182;920023;-60
2023/04/13 03:08:17;;;;;;;10.07;7.60;;;;;;;;;;776845;180;816500;-60
2023/04/13 03:10:43;;;;;;;9.05;7.32;;;;;;;;;;761789;179;918651;-60
2023/04/13 03:13:09;;;;;;;11.97;8.00;;;;;;;;;;758182;184;919146;-59
2023/04/13 03:15:35;;;;;;;11.73;7.63;;;;;;;;;;763314;182;918509;-60
2023/04/13 03:18:02;;;;;;;8.93;5.07;;;;;;;;;;769255;182;713288;-60
2023/04/13 03:20:27;;;;;;;11.63;7.00;;;;;;;;;;768607;180;628924;-60
2023/04/13 03:22:54;;;;;;;9.70;7.60;;;;;;;;;;769933;179;626191;-60
2023/04/13 03:25:18;;;;;;;11.03;8.03;;;;;;;;;;771436;182;629274;-60
2023/04/13 03:27:44;;;;;;;12.03;8.30;;;;;;;;;;767644;183;621045;-60
2023/04/13 03:30:10;;;;;;;9.38;7.22;;;;;;;;;;770145;181;876610;-60
2023/04/13 03:32:36;;;;;;;9.45;8.30;;;;;;;;;;772040;183;918674;-59
2023/04/13 03:35:02;;;;;;;12.03;7.27;;;;;;;;;;766125;182;931041;-60
2023/04/13 03:37:31;;;;;;;8.47;6.30;;;;;;;;;;762238;184;921667;-60
2023/04/13 03:39:54;;;;;;;9.53;6.10;;;;;;;;;;755616;182;1025808;-60
2023/04/13 03:42:20;;;;;;;14.98;6.65;;;;;;;;;;764504;181;918931;-59
2023/04/13 03:44:45;;;;;;;12.13;6.10;;;;;;;;;;763132;182;923738;-60
2023/04/13 03:47:11;;;;;;;8.50;6.50;;;;;;;;;;762742;184;918836;-60
2023/04/13 03:49:37;;;;;;;6.63;5.90;;;;;;;;;;771405;182;919651;-59
2023/04/13 03:52:03;;;;;;;11.47;6.33;;;;;;;;;;757010;182;919474;-59
2023/04/13 03:54:29;;;;;;;7.73;5.77;;;;;;;;;;762977;181;919749;-58
2023/04/13 03:56:56;;;;;;;9.40;7.10;;;;;;;;;;764544;182;919181;-57
2023/04/13 03:59:21;;;;;;;8.53;6.50;;;;;;;;;;765233;181;919151;-57
2023/04/13 04:01:46;;;;;;;10.40;7.45;;;;;;;;;;761042;182;839613;-58
2023/04/13 04:04:12;;;;;;;8.02;6.12;;;;;;;;;;765808;182;814198;-58
2023/04/13 04:06:38;;;;;;;9.57;6.60;;;;;;;;;;761179;181;916906;-58
2023/04/13 04:09:05;;;;;;;9.87;6.30;;;;;;;;;;761440;182;883045;-58
2023/04/13 04:11:30;;;;;;;11.77;6.73;;;;;;;;;;761954;182;918394;-58
2023/04/13 04:13:56;;;;;;;11.43;7.03;;;;;;;;;;766850;182;912840;-58
2023/04/13 04:16:22;;;;;;;8.50;6.43;;;;;;;;;;759298;182;924403;-58
2023/04/13 04:18:48;;;;;;;9.10;6.53;;;;;;;;;;752760;184;899387;-58
2023/04/13 04:21:14;;;;;;;12.90;6.50;;;;;;;;;;766727;182;817785;-58
2023/04/13 04:23:40;;;;;;;8.60;5.53;;;;;;;;;;764204;182;917784;-58
2023/04/13 04:26:06;;;;;;;10.13;6.23;;;;;;;;;;758424;182;1023074;-58
2023/04/13 04:28:38;;;;;;;9.70;4.50;;;;;;;;;;771597;182;620102;-58
2023/04/13 04:31:06;;;;;;;7.57;4.90;;;;;;;;;;769934;180;905552;-58
2023/04/13 04:33:32;;;;;;;10.20;4.20;;;;;;;;;;754055;182;915500;-57
2023/04/13 04:36:00;;;;;;;15.03;9.33;;;;;;;;;;759300;183;918407;-57
2023/04/13 04:38:23;;;;;;;6.80;4.60;;;;;;;;;;764806;182;914471;-58
2023/04/13 04:40:49;;;;;;;8.70;4.97;;;;;;;;;;767516;181;858378;-58
2023/04/13 04:43:15;;;;;;;6.70;5.70;;;;;;;;;;757602;182;915601;-58
2023/04/13 04:45:42;;;;;;;7.57;5.00;;;;;;;;;;770978;182;630979;-58
2023/04/13 04:48:07;;;;;;;8.23;6.10;;;;;;;;;;767738;182;633189;-58
2023/04/13 04:50:32;;;;;;;7.70;5.47;;;;;;;;;;765942;182;633515;-58
2023/04/13 04:52:58;;;;;;;12.17;6.07;;;;;;;;;;766554;182;619631;-58
2023/04/13 04:55:24;;;;;;;8.97;5.20;;;;;;;;;;771272;182;629062;-58
2023/04/13 04:57:50;;;;;;;12.57;8.50;;;;;;;;;;761680;182;918684;-58
2023/04/13 05:00:16;;;;;;;11.10;8.27;;;;;;;;;;768526;181;810299;-58
2023/04/13 05:02:42;;;;;;;10.53;6.10;;;;;;;;;;769163;182;672806;-58
2023/04/13 05:05:08;;;;;;;7.87;6.00;;;;;;;;;;767016;182;613004;-58
2023/04/13 05:07:34;;;;;;;10.70;6.60;;;;;;;;;;757422;182;876961;-58
2023/04/13 05:10:00;;;;;;;9.27;6.40;;;;;;;;;;766052;182;917424;-58
2023/04/13 05:12:25;;;;;;;13.55;7.55;;;;;;;;;;760139;182;919012;-58
2023/04/13 05:14:51;;;;;;;9.10;6.33;;;;;;;;;;759784;182;922345;-58
2023/04/13 05:17:17;;;;;;;13.03;9.40;;;;;;;;;;765641;181;920004;-58
2023/04/13 05:19:44;;;;;;;18.53;12.30;;;;;;;;;;771520;182;919160;-58
2023/04/13 05:22:09;;;;;;;14.80;10.30;;;;;;;;;;759604;182;856460;-58
2023/04/13 05:24:35;;;;;;;12.30;8.93;;;;;;;;;;747603;185;926990;-58
2023/04/13 05:27:01;;;;;;;13.23;9.20;;;;;;;;;;754175;185;919718;-58
2023/04/13 05:29:26;;;;;;;9.93;7.70;;;;;;;;;;759430;181;918609;-58
2023/04/13 05:31:52;;;;;;;12.13;7.80;;;;;;;;;;760172;182;918772;-58
2023/04/13 05:34:18;;;;;;;12.07;7.12;;;;;;;;;;760597;182;918621;-58
2023/04/13 05:36:44;;;;;;;9.77;7.47;;;;;;;;;;769125;181;919077;-58
2023/04/13 05:39:10;;;;;;;13.13;9.03;;;;;;;;;;769129;181;864807;-58
2023/04/13 05:41:36;;;;;;;13.70;7.43;;;;;;;;;;766572;182;921140;-58
2023/04/13 05:44:01;;;;;;;12.57;7.93;;;;;;;;;;767882;183;763983;-58
2023/04/13 05:46:28;;;;;;;12.10;8.30;;;;;;;;;;765892;181;918290;-58
2023/04/13 05:48:53;;;;;;;12.47;8.70;;;;;;;;;;755153;181;917753;-59
2023/04/13 05:51:19;;;;;;;10.50;7.40;;;;;;;;;;764677;183;817559;-57
2023/04/13 05:53:45;;;;;;;10.90;6.90;;;;;;;;;;765662;182;819108;-58
2023/04/13 05:56:11;;;;;;;12.37;7.57;;;;;;;;;;763970;182;919001;-58
2023/04/13 05:58:37;;;;;;;20.33;8.10;;;;;;;;;;756427;183;918932;-58
2023/04/13 06:01:02;;;;;;;8.77;7.33;;;;;;;;;;750279;184;918750;-58
2023/04/13 06:03:28;;;;;;;11.93;8.00;;;;;;;;;;746692;185;919176;-58
2023/04/13 06:05:54;;;;;;;15.10;7.50;;;;;;;;;;760367;182;920016;-58
2023/04/13 06:08:20;;;;;;;12.07;6.87;;;;;;;;;;770761;182;912902;-57
2023/04/13 06:10:46;;;;;;;8.30;6.33;;;;;;;;;;763056;182;917298;-58
2023/04/13 06:13:12;;;;;;;13.10;7.13;;;;;;;;;;756334;182;924819;-60
2023/04/13 06:15:37;;;;;;;10.00;6.50;;;;;;;;;;754003;184;921679;-64
2023/04/13 06:18:03;;;;;;;9.70;6.33;;;;;;;;;;758621;183;920888;-58
2023/04/13 06:20:30;;;;;;;9.93;6.47;;;;;;;;;;762095;182;1017343;-58
2023/04/13 06:22:55;;;;;;;10.10;6.33;;;;;;;;;;768217;183;818421;-58
2023/04/13 06:25:21;;;;;;;9.60;6.53;;;;;;;;;;762969;182;815021;-58
2023/04/13 06:27:48;;;;;;;12.00;5.43;;;;;;;;;;762127;183;918623;-58
2023/04/13 06:30:13;;;;;;;14.37;6.43;;;;;;;;;;764485;183;920877;-58
2023/04/13 06:32:38;;;;;;;13.10;8.23;;;;;;;;;;762261;182;925134;-58
2023/04/13 06:35:05;;;;;;;13.33;8.23;;;;;;;;;;761313;182;918257;-58
2023/04/13 06:37:31;;;;;;;15.10;8.80;;;;;;;;;;767243;182;816130;-58
2023/04/13 06:39:56;;;;;;;13.07;7.93;;;;;;;;;;772979;182;815834;-58
2023/04/13 06:42:22;;;;;;;16.80;10.37;;;;;;;;;;770583;180;908734;-58
2023/04/13 06:44:48;;;;;;;13.10;8.97;;;;;;;;;;770330;181;826673;-58
2023/04/13 06:47:14;;;;;;;13.63;8.33;;;;;;;;;;777138;181;811160;-58
2023/04/13 06:49:40;;;;;;;8.00;5.27;;;;;;;;;;770657;181;918057;-58
2023/04/13 06:52:06;;;;;;;7.43;4.40;;;;;;;;;;769830;180;918744;-58
2023/04/13 06:54:31;;;;;;;8.17;4.83;;;;;;;;;;771695;183;920354;-58
2023/04/13 06:56:57;;;;;;;10.30;4.10;;;;;;;;;;767008;181;899352;-58
2023/04/13 06:59:23;;;;;;;7.93;4.00;;;;;;;;;;768183;181;918620;-61
2023/04/13 07:01:49;;;;;;;10.87;4.97;;;;;;;;;;764736;179;914822;-58
2023/04/13 07:04:15;;;;;;;7.77;4.70;;;;;;;;;;771037;179;859472;-58
2023/04/13 07:06:41;;;;;;;11.20;4.37;;;;;;;;;;757279;182;913038;-58
2023/04/13 07:09:06;;;;;;;7.53;4.60;;;;;;;;;;760115;182;920043;-58
2023/04/13 07:11:32;;;;;;;6.53;4.10;;;;;;;;;;772210;182;940882;-58
2023/04/13 07:13:58;;;;;;;8.05;4.78;;;;;;;;;;760738;182;918484;-58
2023/04/13 07:16:24;;;;;;;9.00;4.70;;;;;;;;;;762910;182;864237;-58
2023/04/13 07:18:50;;;;;;;10.80;5.43;;;;;;;;;;756909;184;919257;-58
2023/04/13 07:21:16;;;;;;;6.73;4.77;;;;;;;;;;759031;182;940282;-58
2023/04/13 07:23:41;;;;;;;8.33;5.20;;;;;;;;;;762691;183;818140;-58
2023/04/13 07:26:07;;;;;;;8.40;4.77;;;;;;;;;;763119;183;916993;-59
2023/04/13 07:28:33;;;;;;;10.50;5.63;;;;;;;;;;754525;183;919016;-58
2023/04/13 07:31:01;;;;;;;6.50;4.90;;;;;;;;;;730001;187;921305;-58
2023/04/13 07:33:25;;;;;;;8.00;4.40;;;;;;;;;;755166;181;919948;-58
2023/04/13 07:35:53;;;;;;;6.57;4.10;;;;;;;;;;763622;181;917841;-58
2023/04/13 07:38:16;;;;;;;7.93;4.83;;;;;;;;;;767242;182;919618;-58
2023/04/13 07:40:43;;;;;;;6.63;4.30;;;;;;;;;;765825;181;921448;-58
2023/04/13 07:43:09;;;;;;;6.63;3.70;;;;;;;;;;770979;181;920379;-60
2023/04/13 07:45:35;;;;;;;10.43;4.72;;;;;;;;;;765885;182;916961;-58
2023/04/13 07:48:01;;;;;;;9.20;4.90;;;;;;;;;;761494;180;921751;-59
2023/04/13 07:50:26;;;;;;;9.00;5.27;;;;;;;;;;762464;183;921581;-58
2023/04/13 07:52:52;;;;;;;9.00;5.23;;;;;;;;;;763347;182;909070;-58
2023/04/13 07:55:19;;;;;;;12.33;4.90;;;;;;;;;;766814;182;816581;-58
2023/04/13 07:57:44;;;;;;;6.63;4.77;;;;;;;;;;765507;181;911540;-59
2023/04/13 08:00:12;;;;;;;10.60;7.30;;;;;;;;;;767326;184;812451;-58
2023/04/13 08:02:37;;;;;;;12.47;5.93;;;;;;;;;;764320;182;822052;-58
2023/04/13 08:05:03;;;;;;;12.07;6.90;;;;;;;;;;763716;182;912064;-58
2023/04/13 08:07:29;;;;;;;8.60;5.53;;;;;;;;;;768751;183;893560;-58
2023/04/13 08:09:55;;;;;;;8.90;6.37;;;;;;;;;;763966;184;919212;-58
2023/04/13 08:12:21;;;;;;;9.97;5.97;;;;;;;;;;762990;182;1021347;-58
2023/04/13 08:14:46;;;;;;;14.30;6.80;;;;;;;;;;758215;182;919181;-58
2023/04/13 08:17:12;;;;;;;12.30;6.97;;;;;;;;;;741756;183;918420;-58
2023/04/13 08:19:39;;;;;;;14.30;7.23;;;;;;;;;;754986;182;903831;-58
2023/04/13 08:22:04;;;;;;;11.63;7.30;;;;;;;;;;762104;182;919292;-58
2023/04/13 08:24:30;;;;;;;12.80;8.10;;;;;;;;;;773090;182;918957;-58
2023/04/13 08:26:57;;;;;;;12.00;7.90;;;;;;;;;;760665;182;939757;-58
2023/04/13 08:29:22;;;;;;;13.83;7.80;;;;;;;;;;761704;182;1023314;-59
2023/04/13 08:31:47;;;;;;;10.48;7.65;;;;;;;;;;769228;182;918899;-58
2023/04/13 08:34:13;;;;;;;9.43;6.67;;;;;;;;;;771044;182;757332;-59
2023/04/13 08:36:39;;;;;;;11.10;6.93;;;;;;;;;;765699;181;918948;-59
2023/04/13 08:39:08;;;;;;;12.43;8.30;;;;;;;;;;755691;184;921203;-59
2023/04/13 08:41:31;;;;;;;19.20;9.13;;;;;;;;;;756673;182;882896;-59
2023/04/13 08:43:57;;;;;;;19.90;8.30;;;;;;;;;;763474;182;920990;-59
2023/04/13 08:46:22;;;;;;;11.40;8.13;;;;;;;;;;764716;182;918863;-60
2023/04/13 08:48:48;;;;;;;11.50;7.23;;;;;;;;;;772252;182;919195;-58
2023/04/13 08:51:14;;;;;;;11.57;7.87;;;;;;;;;;764798;182;878731;-58
2023/04/13 08:53:40;;;;;;;13.97;8.50;;;;;;;;;;764419;182;923362;-58
2023/04/13 08:56:06;;;;;;;14.83;8.47;;;;;;;;;;757129;184;852667;-58
2023/04/13 08:58:33;;;;;;;16.73;10.93;;;;;;;;;;763941;183;919036;-58
2023/04/13 09:00:58;;;;;;;14.67;9.20;;;;;;;;;;766995;181;919032;-58
2023/04/13 09:03:24;;;;;;;12.60;8.53;;;;;;;;;;772160;183;816439;-57
2023/04/13 09:05:52;;;;;;;17.10;8.83;;;;;;;;;;770304;182;817722;-58
2023/04/13 09:08:17;;;;;;;14.10;9.23;;;;;;;;;;763981;181;916964;-57
2023/04/13 09:10:43;;;;;;;13.20;8.07;;;;;;;;;;765845;182;923457;-58
2023/04/13 09:13:09;;;;;;;13.23;9.37;;;;;;;;;;768970;182;919194;-58
2023/04/13 09:15:35;;;;;;;18.63;9.60;;;;;;;;;;762665;183;919289;-58
2023/04/13 09:18:06;;;;;;;14.07;9.93;;;;;;;;;;767027;182;919477;-58
2023/04/13 09:20:31;;;;;;;14.30;9.53;;;;;;;;;;768241;182;913626;-58
2023/04/13 09:22:57;;;;;;;17.10;8.80;;;;;;;;;;747166;184;917890;-58
2023/04/13 09:25:24;;;;;;;13.70;7.60;;;;;;;;;;754453;182;917077;-58
2023/04/13 09:27:51;;;;;;;15.03;8.83;;;;;;;;;;762514;184;912394;-58
2023/04/13 09:30:18;;;;;;;13.47;8.37;;;;;;;;;;771823;182;909556;-58
2023/04/13 09:32:43;;;;;;;11.90;7.77;;;;;;;;;;766824;182;895985;-58
2023/04/13 09:35:10;;;;;;;10.57;7.60;;;;;;;;;;766405;181;905318;-58
2023/04/13 09:37:35;;;;;;;13.47;9.10;;;;;;;;;;773237;181;815526;-57
2023/04/13 09:40:08;;;;;;;13.80;8.13;;;;;;;;;;765691;181;937269;-58
2023/04/13 09:42:33;;;;;;;14.43;9.33;;;;;;;;;;767623;182;865855;-57
2023/04/13 09:44:58;;;;;;;16.63;9.57;;;;;;;;;;766323;182;918828;-58
2023/04/13 09:47:25;;;;;;;14.23;8.97;;;;;;;;;;759295;183;889325;-57
2023/04/13 09:49:50;;;;;;;14.70;9.00;;;;;;;;;;760015;184;919075;-57
2023/04/13 09:52:19;;;;;;;14.10;7.70;;;;;;;;;;763091;182;815934;-58
2023/04/13 09:54:44;;;;;;;12.03;7.63;;;;;;;;;;757010;184;919091;-58
2023/04/13 09:57:10;;;;;;;10.80;8.60;;;;;;;;;;751288;184;919246;-57
2023/04/13 09:59:36;;;;;;;10.60;8.20;;;;;;;;;;751455;184;919776;-57
2023/04/13 10:02:02;;;;;;;17.10;6.97;;;;;;;;;;748626;182;928035;-58
2023/04/13 10:04:28;;;;;;;11.90;7.83;;;;;;;;;;754141;183;917559;-57
2023/04/13 10:06:54;;;;;;;11.60;8.50;;;;;;;;;;757904;182;920780;-58
2023/04/13 10:09:20;;;;;;;13.00;8.20;;;;;;;;;;750782;184;918704;-58
2023/04/13 10:11:45;;;;;;;15.33;9.83;;;;;;;;;;769784;182;921712;-58
2023/04/13 10:14:11;;;;;;;13.83;9.00;;;;;;;;;;767223;181;915706;-58
2023/04/13 10:16:40;;;;;;;14.55;9.88;;;;;;;;;;768998;181;848936;-57
2023/04/13 10:19:07;;;;;;;12.03;7.70;;;;;;;;;;772595;182;1022136;-58
2023/04/13 10:21:34;;;;;;;13.50;8.67;;;;;;;;;;764816;182;926956;-57
2023/04/13 10:23:58;;;;;;;12.60;8.03;;;;;;;;;;766299;182;919341;-57
2023/04/13 10:26:30;;;;;;;22.23;7.50;;;;;;;;;;764851;181;915921;-57
2023/04/13 10:28:56;;;;;;;14.77;9.20;;;;;;;;;;760386;183;863276;-57
2023/04/13 10:31:22;;;;;;;13.20;9.00;;;;;;;;;;766899;182;919850;-58
2023/04/13 10:33:47;;;;;;;14.63;8.23;;;;;;;;;;758985;182;919070;-58
2023/04/13 10:36:13;;;;;;;15.80;8.27;;;;;;;;;;755335;185;918810;-57
2023/04/13 10:38:41;;;;;;;14.53;8.23;;;;;;;;;;764694;182;916252;-58
2023/04/13 10:41:07;;;;;;;15.87;9.77;;;;;;;;;;767268;182;915772;-57
2023/04/13 10:43:33;;;;;;;13.50;9.63;;;;;;;;;;753745;184;919910;-57
2023/04/13 10:46:05;;;;;;;14.03;8.83;;;;;;;;;;767197;181;917754;-57
2023/04/13 10:48:31;;;;;;;14.80;10.40;;;;;;;;;;764678;182;918426;-58
2023/04/13 10:50:56;;;;;;;12.77;9.23;;;;;;;;;;763092;182;922029;-57
2023/04/13 10:53:23;;;;;;;15.80;9.70;;;;;;;;;;770685;181;921140;-56
2023/04/13 10:55:49;;;;;;;14.43;10.90;;;;;;;;;;765972;182;920033;-57
2023/04/13 10:58:17;;;;;;;19.33;11.53;;;;;;;;;;755698;182;945764;-57
2023/04/13 11:00:42;;;;;;;14.33;10.77;;;;;;;;;;752096;182;917884;-57
2023/04/13 11:03:08;;;;;;;15.80;10.77;;;;;;;;;;772106;182;859487;-56
2023/04/13 11:05:33;;;;;;;12.00;9.48;;;;;;;;;;765937;181;918191;-57
2023/04/13 11:07:59;;;;;;;16.00;9.80;;;;;;;;;;756643;181;919146;-56
2023/04/13 11:10:26;;;;;;;13.70;8.70;;;;;;;;;;765740;182;919552;-57
2023/04/13 11:12:51;;;;;;;11.63;7.80;;;;;;;;;;756790;182;815804;-57
2023/04/13 11:15:18;;;;;;;11.20;8.27;;;;;;;;;;752513;184;919999;-57
2023/04/13 11:17:43;;;;;;;12.40;6.97;;;;;;;;;;763702;182;918929;-58
2023/04/13 11:20:10;;;;;;;10.37;8.60;;;;;;;;;;772091;182;881094;-57
2023/04/13 11:22:36;;;;;;;11.93;8.67;;;;;;;;;;765474;180;918093;-57
2023/04/13 11:25:05;;;;;;;12.60;8.53;;;;;;;;;;766986;181;916607;-58
2023/04/13 11:27:31;;;;;;;15.30;8.97;;;;;;;;;;773042;182;922521;-57
2023/04/13 11:30:08;;;;;;;10.27;7.27;;;;;;;;;;768123;182;853987;-58
2023/04/13 11:32:32;;;;;;;12.30;6.93;;;;;;;;;;756694;180;919116;-58
2023/04/13 11:35:04;;;;;;;10.97;6.90;;;;;;;;;;766669;180;916181;-58
2023/04/13 11:37:31;;;;;;;10.00;7.20;;;;;;;;;;768913;182;919546;-57
2023/04/13 11:39:56;;;;;;;12.20;8.07;;;;;;;;;;764929;184;831948;-58
2023/04/13 11:42:21;;;;;;;16.87;10.00;;;;;;;;;;763721;182;917552;-58
2023/04/13 11:44:47;;;;;;;12.57;8.40;;;;;;;;;;763402;183;920784;-57
2023/04/13 11:47:14;;;;;;;9.27;7.47;;;;;;;;;;758338;183;897800;-57
2023/04/13 11:49:45;;;;;;;12.20;8.37;;;;;;;;;;730767;188;917853;-58
2023/04/13 11:52:05;;;;;;;10.35;8.15;;;;;;;;;;739040;188;921081;-58
2023/04/13 11:54:31;;;;;;;10.30;7.70;;;;;;;;;;765592;181;912090;-58
2023/04/13 11:56:57;;;;;;;11.23;7.47;;;;;;;;;;761182;181;918728;-57
2023/04/13 11:59:23;;;;;;;9.95;7.90;;;;;;;;;;760918;182;921618;-57
2023/04/13 12:01:48;;;;;;;11.30;7.00;;;;;;;;;;760145;182;906362;-57
2023/04/13 12:04:14;;;;;;;13.03;8.93;;;;;;;;;;754859;182;919489;-57
2023/04/13 12:06:40;;;;;;;15.30;9.03;;;;;;;;;;756346;184;816977;-57
2023/04/13 12:09:08;;;;;;;10.83;7.60;;;;;;;;;;762535;182;919173;-58
2023/04/13 12:11:37;;;;;;;9.33;7.13;;;;;;;;;;766994;183;915028;-58
2023/04/13 12:14:03;;;;;;;9.98;8.00;;;;;;;;;;765434;181;908497;-57
2023/04/13 12:16:30;;;;;;;13.07;9.00;;;;;;;;;;767983;182;931206;-57
2023/04/13 12:18:54;;;;;;;10.70;7.40;;;;;;;;;;772888;182;811372;-57
2023/04/13 12:21:21;;;;;;;11.43;8.43;;;;;;;;;;767291;182;878512;-58
2023/04/13 12:23:53;;;;;;;10.70;8.40;;;;;;;;;;762326;182;919411;-57
2023/04/13 12:26:19;;;;;;;12.73;8.40;;;;;;;;;;766557;182;914380;-59
2023/04/13 12:28:46;;;;;;;8.70;6.83;;;;;;;;;;769132;182;904447;-59
2023/04/13 12:31:12;;;;;;;11.10;7.67;;;;;;;;;;760093;182;924664;-59
2023/04/13 12:33:38;;;;;;;9.03;6.97;;;;;;;;;;763931;182;919255;-58
2023/04/13 12:36:05;;;;;;;8.95;6.47;;;;;;;;;;767124;184;920377;-58
2023/04/13 12:38:30;;;;;;;7.60;6.17;;;;;;;;;;761608;182;918945;-59
2023/04/13 12:40:56;;;;;;;9.80;6.20;;;;;;;;;;764401;182;919325;-58
2023/04/13 12:43:22;;;;;;;9.57;7.20;;;;;;;;;;762845;182;915301;-59
2023/04/13 12:45:48;;;;;;;9.37;6.13;;;;;;;;;;764338;183;918298;-59
2023/04/13 12:48:14;;;;;;;9.25;6.85;;;;;;;;;;759026;182;919551;-58
2023/04/13 12:50:39;;;;;;;10.23;7.10;;;;;;;;;;762802;183;922070;-58
2023/04/13 12:53:05;;;;;;;10.07;7.27;;;;;;;;;;771136;181;920976;-58
2023/04/13 12:55:31;;;;;;;11.80;8.17;;;;;;;;;;762558;184;923125;-58
2023/04/13 12:57:57;;;;;;;10.07;6.87;;;;;;;;;;759738;182;919700;-58
2023/04/13 13:00:23;;;;;;;14.17;8.57;;;;;;;;;;762476;181;837889;-59
2023/04/13 13:02:50;;;;;;;13.97;8.47;;;;;;;;;;765745;181;820514;-58
2023/04/13 13:05:15;;;;;;;11.37;9.33;;;;;;;;;;762018;183;816528;-59
2023/04/13 13:07:40;;;;;;;12.00;9.20;;;;;;;;;;770323;181;919460;-59
2023/04/13 13:10:07;;;;;;;10.47;7.93;;;;;;;;;;762277;179;913528;-59
2023/04/13 13:12:32;;;;;;;10.10;9.03;;;;;;;;;;756063;182;919830;-59
2023/04/13 13:15:00;;;;;;;13.80;9.18;;;;;;;;;;752541;182;917598;-59
2023/04/13 13:17:24;;;;;;;15.15;9.40;;;;;;;;;;771881;182;913590;-59
2023/04/13 13:19:50;;;;;;;10.10;8.30;;;;;;;;;;765480;182;924756;-59
2023/04/13 13:22:16;;;;;;;11.37;7.83;;;;;;;;;;759164;182;858741;-59
2023/04/13 13:24:42;;;;;;;10.45;8.20;;;;;;;;;;756188;182;919074;-59
2023/04/13 13:27:07;;;;;;;10.40;8.27;;;;;;;;;;752409;183;918849;-59
2023/04/13 13:29:35;;;;;;;8.17;5.77;;;;;;;;;;764080;179;894069;-59
2023/04/13 13:32:00;;;;;;;9.60;6.83;;;;;;;;;;769504;183;915147;-58
2023/04/13 13:34:25;;;;;;;11.13;5.63;;;;;;;;;;753631;181;833751;-58
2023/04/13 13:36:51;;;;;;;12.87;5.73;;;;;;;;;;753298;183;800127;-59
2023/04/13 13:39:17;;;;;;;7.73;5.63;;;;;;;;;;759427;182;915477;-59
2023/04/13 13:41:43;;;;;;;10.10;5.80;;;;;;;;;;765170;182;913605;-59
2023/04/13 13:44:08;;;;;;;6.63;4.93;;;;;;;;;;763368;181;914164;-59
2023/04/13 13:46:35;;;;;;;8.27;5.40;;;;;;;;;;763601;179;861528;-59
2023/04/13 13:49:00;;;;;;;9.47;5.67;;;;;;;;;;767815;181;817402;-58
2023/04/13 13:51:27;;;;;;;9.00;4.82;;;;;;;;;;757126;183;728257;-58
2023/04/13 13:53:52;;;;;;;8.73;5.27;;;;;;;;;;756756;182;915477;-59
2023/04/13 13:56:18;;;;;;;8.97;6.20;;;;;;;;;;770626;182;853047;-58
2023/04/13 13:58:44;;;;;;;6.70;5.70;;;;;;;;;;761383;181;821227;-58
2023/04/13 14:01:10;;;;;;;8.60;5.60;;;;;;;;;;765486;182;816247;-58
2023/04/13 14:03:36;;;;;;;8.03;4.60;;;;;;;;;;766288;181;922763;-58
2023/04/13 14:06:01;;;;;;;7.78;5.15;;;;;;;;;;765642;181;714073;-58
2023/04/13 14:08:27;;;;;;;7.37;5.23;;;;;;;;;;765901;181;760366;-58
2023/04/13 14:10:53;;;;;;;6.83;4.87;;;;;;;;;;764868;182;819423;-58